Extended Streamflow Prediction
Issued by NWS Lower Mississippi RFC

Current Version | Previous Version | Graphics & Text | Print | Product List | Glossary On
Versions: 1 2 3 4 5 6 7 8 9 10 11 12 13 14 15 16 17 18 19 20 21 22 23 24 25 26 27 28 29 30 31 32 33 34 35 36 37 38 39 40 41 42 43 44 45 46 47 48 49 50
963
FGUS64 KORN 241515
ESPORN

EXTENDED STREAMFLOW PREDICTION
NATIONAL WEATHER SERVICE RIVER FORECAST CENTER, SLIDELL, LA
1015 AM CDT SAT JUN 24 2017

   DATE   CPGM7 CIRI2 NMDM7 TPTT1 CRTM7 OSGA4 MEMT1 TRPM6 HEEA4
06-25-17   25.4  31.4  20.5  23.7  22.2  15.5  15.7  26.1  22.6
06-26-17   24.6  31.1  20.3  24.0  23.0  16.6  16.9  27.3  23.8
06-27-17   23.9  31.7  20.6  23.8  22.8  17.1  17.7  28.3  24.8
06-28-17   23.2  32.1  21.0  24.2  23.0  16.8  17.6  28.8  25.6
06-29-17   22.8  32.3  21.3  24.5  23.3  17.1  17.6  28.5  25.6
06-30-17   22.6  32.7  21.7  24.9  23.6  17.5  18.0  28.7  25.6
07-01-17   22.5  33.0  22.1  25.2  24.0  17.8  18.3  29.1  25.9
07-02-17   22.2  31.8  21.7  25.5  24.3  18.2  18.7  29.3  26.2
07-03-17   21.7  28.6  19.6  24.2  24.0  18.6  19.1  29.8  26.5
07-04-17   21.1  25.8  16.5  21.6  21.9  17.2  18.7  30.1  26.9
07-05-17   20.5  23.6  14.3  19.0  19.3  14.4  16.5  28.8  26.7
07-06-17   20.1  21.8  12.3  17.0  17.2  11.7  13.9  26.4  24.7
07-07-17   19.7  21.0  11.1  15.4  15.5   9.6  11.6  23.9  22.3
07-08-17   19.3  20.1  10.3  14.5  14.4   8.2   9.9  22.1  20.2
07-09-17   18.8  19.7   9.7  13.9  13.8   7.3   8.9  20.8  18.8
07-10-17   18.0  19.0   9.3  13.5  13.2   6.6   8.1  20.0  17.9
07-11-17   17.1  18.2   8.5  12.9  12.7   6.0   7.6  19.3  17.2
07-12-17   15.8  17.3   7.7  12.1  12.0   5.4   7.0  18.8  16.6
07-13-17   15.0  16.4   6.9  11.3  11.3   4.7   6.4  18.3  16.2
07-14-17   14.5  15.4   6.0  10.5  10.5   3.8   5.7  17.7  15.7
07-15-17   14.0  15.1   5.5   9.7   9.7   2.9   4.8  16.9  15.0
07-16-17   13.7  14.8   5.2   9.5   9.3   2.3   4.0  16.1  14.2
07-17-17   13.5  14.6   5.0   9.3   9.0   1.9   3.6  15.6  13.6
07-18-17   13.2  14.4   4.7   9.1   8.9   1.8   3.4  15.3  13.2
07-19-17   13.0  14.3   4.6   8.9   8.7   1.6   3.3  15.2  13.1
07-20-17   12.7  14.1   4.5   8.7   8.5   1.4   3.2  15.1  12.9
07-21-17   12.5  14.0   4.3   8.5   8.4   1.3   3.0  14.9  12.9
07-22-17   12.2  13.9   4.2   8.4   8.3   1.2   2.9  14.8  12.8

   DATE   ARSA4 GEEM6 VCKM6 NTZM6 RRLL1 BTRL1 DONL1 RRVL1 NORL1
06-25-17   21.9  33.3  31.5  41.5  45.3  29.8  20.4  15.7  11.0
06-26-17   22.4  33.8  32.0  41.8  44.8  29.1  20.1  15.4  10.7
06-27-17   22.8  34.2  32.5  42.3  44.8  28.7  19.7  15.0  10.4
06-28-17   23.0  34.6  32.9  42.7  45.2  29.0  19.5  14.6  10.3
06-29-17   23.2  34.8  33.2  43.0  45.7  29.4  19.7  14.6  10.0
06-30-17   23.2  34.8  33.5  43.3  46.1  29.8  20.1  14.8  10.1
07-01-17   23.2  34.9  33.5  43.5  46.5  30.2  20.4  15.0  10.3
07-02-17   23.4  34.9  33.5  43.7  46.8  30.5  20.6  15.2  10.4
07-03-17   23.6  35.1  33.6  43.7  46.8  30.6  20.7  15.4  10.6
07-04-17   23.6  35.3  33.8  43.7  46.7  30.7  20.8  15.4  10.6
07-05-17   23.6  35.3  34.0  43.8  46.7  30.7  20.8  15.5  10.7
07-06-17   23.1  35.1  34.0  44.1  46.8  30.6  20.8  15.6  10.7
07-07-17   22.1  34.6  33.8  44.2  47.0  30.8  20.8  15.6  10.8
07-08-17   20.8  33.4  33.3  44.0  47.2  31.0  21.0  15.7  10.9
07-09-17   19.4  32.1  32.3  43.5  47.1  31.0  21.1  15.7  10.9
07-10-17   17.5  30.4  31.0  42.5  46.7  30.8  21.1  15.9  11.0
07-11-17   16.0  28.8  29.4  41.2  45.6  30.1  20.8  15.8  11.0
07-12-17   15.1  27.7  27.6  39.7  44.4  28.9  20.2  15.5  10.8
07-13-17   14.3  26.9  26.8  38.1  43.1  27.7  19.3  14.8  10.5
07-14-17   13.7  26.3  26.2  37.2  41.8  26.4  18.5  14.3  10.1
07-15-17   13.3  25.8  25.6  36.7  40.8  25.4  17.7  13.8   9.7
07-16-17   12.5  25.2  25.0  36.1  40.3  24.7  17.1  13.4   9.4
07-17-17   11.7  24.5  24.3  35.5  39.8  24.2  16.6  12.9   9.1
07-18-17   10.6  23.6  23.7  34.9  39.2  23.7  16.3  12.6   8.9
07-19-17    9.7  22.7  23.0  34.3  38.6  23.2  15.9  12.4   8.7
07-20-17    9.1  22.1  22.2  33.7  38.0  22.6  15.5  12.1   8.5
07-21-17    8.7  21.6  21.5  33.0  37.3  22.0  15.1  11.8   8.3
07-22-17    8.3  21.1  21.1  32.4  36.7  21.4  14.7  11.6   8.1

NOTE: STAGE FORECASTS ARE BASED ON FUTURE RAINFALL COVERING
THE NEXT 48 HOURS.

END ORN


$$





USA.gov is the U.S. government's official web portal to all federal, state and local government web resources and services.